• Join FlightAware (Why Join?)
  • Login
  • US Flag 
12:18PM EDT


 

Airport Tracker/Info


-or-


 

Live Flight TrackerFlight Track Log ✈ DAL3720 ✈ 30-Apr-2013 ✈ KCLT - KCVG

Flight Track Log - Related Links

Times and Time Zones

All times are in EDT time to prevent confusion due to time zone crossing. See the DAL3720 flight status page for this flight to view local times or setup timezone preferences in your user account.

Time Position Orientation Groundspeed Altitude Reporting Facility
EDT Latitude Longitude Course Direction KTS MPH feet Rate Location/Type
07:16AM 35.2369 -80.9417 52° Northeast 158 182 1,700  Level Atlanta Center
07:17AM 35.2761 -80.9247 19° North 197 227 3,000 1,800 Climbing Atlanta Center
07:17AM 35.2989 -80.9139 21° North 212 244 4,100 2,280 Climbing Atlanta Center
07:18AM 35.3675 -80.9061 North 227 261 6,300 2,520 Climbing Atlanta Center
07:19AM 35.4444 -80.9006 North 256 295 9,200 2,280 Climbing Atlanta Center
07:20AM 35.5300 -80.9000 360° North 281 323 10,900 1,500 Climbing Atlanta Center
07:21AM 35.6278 -80.8936 North 328 377 12,300 1,680 Climbing Atlanta Center
07:22AM 35.3922 -80.9957 52° Northeast  Level FlightAware Approximate
07:22AM 35.7169 -80.9542 331° Northwest 344 396 14,300  Level Atlanta Center
07:23AM 35.7981 -81.0253 325° Northwest 352 405 16,200 1,740 Climbing Atlanta Center
07:24AM 35.8833 -81.0964 326° Northwest 368 423 17,800 1,500 Climbing Atlanta Center
07:25AM 35.9664 -81.1678 325° Northwest 368 423 19,300 1,500 Climbing Atlanta Center
07:26AM 36.0536 -81.2419 326° Northwest 368 423 20,900 1,440 Climbing Atlanta Center
07:27AM 36.1386 -81.3108 327° Northwest 368 423 22,200 1,020 Climbing Atlanta Center
07:28AM 36.2278 -81.3850 326° Northwest 368 423 23,000 600 Climbing Atlanta Center
07:29AM 36.3083 -81.4544 325° Northwest 386 444 23,500 600 Climbing Atlanta Center
07:30AM 36.3997 -81.5342 325° Northwest 392 451 24,300 780 Climbing Atlanta Center
07:32AM 36.5511 -81.7278 314° West 419 482 25,900 540 Climbing Indianapolis Center
07:33AM 36.5858 -81.8686 287° West 423 487 26,000  Climbing Indianapolis Center
07:34AM 36.6206 -82.0139 287° West 435 501 26,000  Level Indianapolis Center
07:35AM 36.6556 -82.1611 287° West 442 509 26,000  Level Indianapolis Center
07:36AM 36.6908 -82.3092 287° West 443 510 26,000  Level Indianapolis Center
07:37AM 36.7319 -82.4828 287° West 446 513 26,000  Level Indianapolis Center
07:38AM 36.7664 -82.6306 286° West 445 512 26,000  Level Indianapolis Center
07:40AM 36.8186 -82.7675 296° West 443 510 26,000  Level Indianapolis Center
07:41AM 36.8986 -82.8767 313° West 469 540 26,000  Level Indianapolis Center
07:42AM 37.0108 -82.9847 322° Northwest 449 517 26,000 -420 Level Indianapolis Center
07:43AM 37.1111 -83.0797 323° Northwest 447 514 25,200 -840 Descending Indianapolis Center
07:44AM 37.2128 -83.1772 323° Northwest 456 525 24,400 -720 Descending Indianapolis Center
07:45AM 37.3150 -83.2736 323° Northwest 458 527 23,800 -840 Descending Indianapolis Center
07:46AM 37.4150 -83.3706 322° Northwest 456 525 22,700 -1,140 Descending Indianapolis Center
07:47AM 37.5139 -83.4658 323° Northwest 449 517 21,500 -1,260 Descending Indianapolis Center
07:48AM 37.6100 -83.5594 322° Northwest 438 504 20,200 -1,320 Descending Indianapolis Center
07:49AM 37.7106 -83.6386 328° Northwest 428 493 18,900 -1,320 Descending Indianapolis Center
07:50AM 37.8319 -83.7233 331° Northwest 426 490 17,500 -1,320 Descending Indianapolis Center
07:51AM 37.9344 -83.7961 331° Northwest 423 487 16,200 -1,260 Descending Indianapolis Center
07:52AM 38.0353 -83.8672 331° Northwest 416 479 14,900 -1,320 Descending Indianapolis Center
07:53AM 38.1314 -83.9372 330° Northwest 399 459 13,600 -1,320 Descending Indianapolis Center
07:54AM 38.2258 -84.0025 332° Northwest 389 448 12,300 -1,260 Descending Indianapolis Center
07:55AM 38.3169 -84.0711 329° Northwest 380 437 11,100 -660 Descending Indianapolis Center
07:56AM 38.4244 -84.1467 331° Northwest 377 434 11,000 -60 Descending Indianapolis Center
07:57AM 38.5167 -84.2139 330° Northwest 379 436 11,000  Level Indianapolis Center
07:58AM 38.6086 -84.2786 331° Northwest 378 435 11,000  Level Indianapolis Center
07:59AM 38.7006 -84.3450 331° Northwest 378 435 11,000  Level Indianapolis Center
08:00AM 38.7939 -84.4125 331° Northwest 380 437 11,000 -120 Level Indianapolis Center
08:01AM 38.8842 -84.4764 331° Northwest 369 425 10,800 -480 Descending Indianapolis Center
08:02AM 38.9500 -84.5167 335° Northwest 296 341 10,200 -1,380 Descending Cincinnati TRACON
08:03AM 39.0167 -84.5333 349° North 273 314 8,400 -1,920 Descending Cincinnati TRACON
08:04AM 39.1000 -84.5333 360° North 264 304 6,200 -2,640 Descending Cincinnati TRACON
08:05AM 39.1667 -84.5667 339° North 252 290 3,200 -2,400 Descending Cincinnati TRACON
08:05AM 39.1772 -84.5897 301° West 264 304 3,000 -840 Descending Indianapolis Center
08:06AM 39.1667 -84.6333 253° West 187 215 2,400 -960 Descending Cincinnati TRACON